Time;durP1;ratioP1;P1;durP2;ratioP2;P2;SDS_P1;SDS_P2;PMS_P1;PMS_P2;Temp;Humidity;BMP_temperature;BMP_pressure;BME280_temperature;BME280_humidity;BME280_pressure;Samples;Min_cycle;Max_cycle;Signal;HPM_P1;HPM_P2
2023/12/31 00:02:03;;;;;;;14.70;5.40;;;;;;;-128.00;-1.00;-1.00;100204;1283;1004702;-30
2023/12/31 00:04:29;;;;;;;19.00;6.30;;;;;;;-128.00;-1.00;-1.00;100195;1287;1003813;-33
2023/12/31 00:06:54;;;;;;;15.70;6.30;;;;;;;-128.00;-1.00;-1.00;100131;1285;1003390;-34
2023/12/31 00:09:20;;;;;;;14.60;6.60;;;;;;;-128.00;-1.00;-1.00;100219;1288;1002913;-32
2023/12/31 00:11:46;;;;;;;14.80;6.60;;;;;;;-128.00;-1.00;-1.00;100394;1285;1003695;-30
2023/12/31 00:14:11;;;;;;;13.40;5.90;;;;;;;-128.00;-1.00;-1.00;100341;1283;1056427;-31
2023/12/31 00:16:37;;;;;;;18.50;6.70;;;;;;;-128.00;-1.00;-1.00;100202;1284;1003179;-32
2023/12/31 00:19:02;;;;;;;18.00;7.60;;;;;;;-128.00;-1.00;-1.00;100177;1288;1003107;-32
2023/12/31 00:21:28;;;;;;;12.40;4.60;;;;;;;-128.00;-1.00;-1.00;100352;1282;1003178;-35
2023/12/31 00:23:54;;;;;;;11.30;5.80;;;;;;;-128.00;-1.00;-1.00;100088;1282;1002993;-32
2023/12/31 00:26:19;;;;;;;14.50;5.80;;;;;;;-128.00;-1.00;-1.00;100225;1283;1058284;-34
2023/12/31 00:28:45;;;;;;;15.10;6.30;;;;;;;-128.00;-1.00;-1.00;100321;1282;1003869;-32
2023/12/31 00:31:10;;;;;;;18.30;7.00;;;;;;;-128.00;-1.00;-1.00;100300;1283;1046805;-30
2023/12/31 00:33:36;;;;;;;13.50;5.90;;;;;;;-128.00;-1.00;-1.00;100231;1287;1002583;-30
2023/12/31 00:36:02;;;;;;;18.40;6.20;;;;;;;-128.00;-1.00;-1.00;100277;1285;1058495;-31
2023/12/31 00:38:28;;;;;;;20.90;6.90;;;;;;;-128.00;-1.00;-1.00;100349;1282;1004146;-33
2023/12/31 00:40:53;;;;;;;21.00;6.90;;;;;;;-128.00;-1.00;-1.00;100240;1286;1002965;-30
2023/12/31 00:43:19;;;;;;;15.40;6.00;;;;;;;-128.00;-1.00;-1.00;100283;1282;1060535;-31
2023/12/31 00:45:44;;;;;;;20.50;7.30;;;;;;;-128.00;-1.00;-1.00;100031;1283;1003469;-32
2023/12/31 00:48:10;;;;;;;17.70;6.50;;;;;;;-128.00;-1.00;-1.00;100298;1283;1013802;-31
2023/12/31 00:50:37;;;;;;;;;;;;;;;-128.00;-1.00;-1.00;100353;1286;1004130;-31
2023/12/31 00:53:02;;;;;;;16.50;6.20;;;;;;;-128.00;-1.00;-1.00;100257;1282;1005294;-29
2023/12/31 00:55:28;;;;;;;15.20;6.30;;;;;;;-128.00;-1.00;-1.00;100317;1289;1003306;-34
2023/12/31 00:57:54;;;;;;;;;;;;;;;-128.00;-1.00;-1.00;100214;1283;1058032;-32
2023/12/31 01:00:20;;;;;;;16.60;5.80;;;;;;;-128.00;-1.00;-1.00;100351;1282;1004424;-33
2023/12/31 01:02:45;;;;;;;;;;;;;;;-128.00;-1.00;-1.00;100203;1283;1046962;-33
2023/12/31 01:05:11;;;;;;;15.80;6.20;;;;;;;-128.00;-1.00;-1.00;100223;1282;1002506;-32
2023/12/31 01:07:36;;;;;;;19.00;7.20;;;;;;;-128.00;-1.00;-1.00;100191;1288;1058250;-33
2023/12/31 01:10:03;;;;;;;15.20;6.20;;;;;;;-128.00;-1.00;-1.00;100270;1288;1003723;-31
2023/12/31 01:12:28;;;;;;;18.10;7.00;;;;;;;-128.00;-1.00;-1.00;100257;1283;1047337;-32
2023/12/31 01:14:54;;;;;;;23.20;8.90;;;;;;;-128.00;-1.00;-1.00;100305;1288;1002997;-31
2023/12/31 01:17:19;;;;;;;23.30;9.20;;;;;;;-128.00;-1.00;-1.00;100269;1288;1004135;-32
2023/12/31 01:19:46;;;;;;;25.20;9.90;;;;;;;-128.00;-1.00;-1.00;100243;1287;1002840;-32
2023/12/31 01:22:13;;;;;;;27.20;11.60;;;;;;;-128.00;-1.00;-1.00;100264;1288;1004279;-31
2023/12/31 01:24:38;;;;;;;22.60;9.30;;;;;;;-128.00;-1.00;-1.00;99991;1288;1003656;-32
2023/12/31 01:27:08;;;;;;;21.20;9.90;;;;;;;-128.00;-1.00;-1.00;100309;1287;1060330;-32
2023/12/31 01:29:37;;;;;;;18.60;10.00;;;;;;;-128.00;-1.00;-1.00;100263;1285;1002800;-31
2023/12/31 01:32:05;;;;;;;18.30;10.70;;;;;;;-128.00;-1.00;-1.00;100313;1288;1058791;-33
2023/12/31 01:34:31;;;;;;;23.50;9.50;;;;;;;-128.00;-1.00;-1.00;100257;1287;1003358;-32
2023/12/31 01:36:56;;;;;;;28.60;10.80;;;;;;;-128.00;-1.00;-1.00;100037;1288;1002927;-33
2023/12/31 01:39:22;;;;;;;20.90;9.50;;;;;;;-128.00;-1.00;-1.00;100238;1286;1002483;-32
2023/12/31 01:41:48;;;;;;;22.60;10.80;;;;;;;-128.00;-1.00;-1.00;100219;1282;1002915;-33
2023/12/31 01:44:13;;;;;;;22.30;10.00;;;;;;;-128.00;-1.00;-1.00;100193;1283;1013128;-33
2023/12/31 01:46:40;;;;;;;24.20;10.60;;;;;;;-128.00;-1.00;-1.00;100310;1289;1004933;-33
2023/12/31 01:49:09;;;;;;;24.90;9.80;;;;;;;-128.00;-1.00;-1.00;100301;1286;1062965;-33
2023/12/31 01:51:34;;;;;;;28.60;11.00;;;;;;;-128.00;-1.00;-1.00;100136;1288;1055247;-33
2023/12/31 02:34:21;;;;;;;51.70;22.30;;;;;;;-102.41;19.20;19860.22;100691;1284;1599497;-29
2023/12/31 02:36:46;;;;;;;55.70;19.80;;;;;;;-128.00;-1.00;-1.00;100303;1279;1002783;-30
2023/12/31 02:39:12;;;;;;;48.20;19.60;;;;;;;-128.00;-1.00;-1.00;100514;1283;1046971;-31
2023/12/31 02:41:38;;;;;;;49.20;21.10;;;;;;;-128.00;-1.00;-1.00;100715;1283;1002675;-33
2023/12/31 02:44:03;;;;;;;37.10;15.90;;;;;;;-128.00;-1.00;-1.00;100556;1283;1003277;-32
2023/12/31 02:46:29;;;;;;;39.60;15.50;;;;;;;-128.00;-1.00;-1.00;100543;1283;1002756;-31
2023/12/31 02:48:55;;;;;;;35.20;14.80;;;;;;;-128.00;-1.00;-1.00;100492;1284;1003245;-31
2023/12/31 02:51:20;;;;;;;33.60;14.00;;;;;;;-128.00;-1.00;-1.00;100231;1282;1003826;-34
2023/12/31 02:53:46;;;;;;;41.30;15.90;;;;;;;-128.00;-1.00;-1.00;100584;1283;1003401;-32
2023/12/31 02:56:11;;;;;;;46.00;19.80;;;;;;;-128.00;-1.00;-1.00;100485;1283;1004615;-30
2023/12/31 02:58:37;;;;;;;38.10;16.60;;;;;;;-128.00;-1.00;-1.00;100645;1285;1003168;-35
2023/12/31 03:01:02;;;;;;;53.80;26.10;;;;;;;-128.00;-1.00;-1.00;100549;1280;1003466;-31
2023/12/31 03:03:28;;;;;;;102.10;45.70;;;;;;;-128.00;-1.00;-1.00;100560;1281;1003425;-32
2023/12/31 03:05:53;;;;;;;42.80;19.00;;;;;;;-128.00;-1.00;-1.00;100486;1283;1003495;-30
2023/12/31 03:08:19;;;;;;;73.30;31.20;;;;;;;-128.00;-1.00;-1.00;100453;1284;1003587;-32
2023/12/31 03:10:45;;;;;;;45.70;18.30;;;;;;;-128.00;-1.00;-1.00;100508;1283;1003431;-32
2023/12/31 03:13:10;;;;;;;42.00;18.50;;;;;;;-128.00;-1.00;-1.00;100482;1283;1003928;-31
2023/12/31 03:15:36;;;;;;;43.30;19.20;;;;;;;-128.00;-1.00;-1.00;100428;1283;1004756;-38
2023/12/31 03:18:02;;;;;;;51.30;24.60;;;;;;;-128.00;-1.00;-1.00;100257;1288;1003883;-29
2023/12/31 03:20:27;;;;;;;40.10;18.70;;;;;;;-128.00;-1.00;-1.00;100521;1283;1004456;-32
2023/12/31 03:22:53;;;;;;;28.40;13.70;;;;;;;-128.00;-1.00;-1.00;100566;1283;1003548;-32
2023/12/31 03:25:19;;;;;;;31.10;12.30;;;;;;;-128.00;-1.00;-1.00;100576;1283;1002913;-30
2023/12/31 03:27:45;;;;;;;27.40;12.20;;;;;;;-128.00;-1.00;-1.00;100405;1282;1005306;-31
2023/12/31 03:30:11;;;;;;;26.30;12.60;;;;;;;-128.00;-1.00;-1.00;100479;1283;1039094;-31
2023/12/31 03:32:37;;;;;;;;;;;;;;;-128.00;-1.00;-1.00;100470;1282;1003884;-31
2023/12/31 03:35:03;;;;;;;35.70;13.10;;;;;;;-128.00;-1.00;-1.00;100650;1281;1004722;-30
2023/12/31 03:37:30;;;;;;;28.00;12.80;;;;;;;-128.00;-1.00;-1.00;100512;1283;1059199;-32
2023/12/31 03:39:56;;;;;;;31.40;12.70;;;;;;;-128.00;-1.00;-1.00;100449;1285;1003281;-31
2023/12/31 03:42:21;;;;;;;26.00;10.70;;;;;;;-128.00;-1.00;-1.00;100392;1283;1004984;-30
2023/12/31 03:44:47;;;;;;;28.20;10.50;;;;;;;-128.00;-1.00;-1.00;100331;1283;1004655;-33
2023/12/31 03:47:13;;;;;;;22.30;10.70;;;;;;;-128.00;-1.00;-1.00;100455;1283;1003474;-35
2023/12/31 03:49:39;;;;;;;32.70;11.20;;;;;;;-128.00;-1.00;-1.00;100573;1285;1058576;-33
2023/12/31 03:52:05;;;;;;;26.30;11.20;;;;;;;-128.00;-1.00;-1.00;100573;1283;1003873;-31
2023/12/31 03:54:30;;;;;;;;;;;;;;;-128.00;-1.00;-1.00;100630;1282;1003469;-29
2023/12/31 03:56:56;;;;;;;38.60;13.60;;;;;;;-128.00;-1.00;-1.00;100493;1282;1003340;-32
2023/12/31 03:59:21;;;;;;;30.50;12.70;;;;;;;-128.00;-1.00;-1.00;100415;1283;1004086;-33
2023/12/31 04:01:48;;;;;;;31.30;11.70;;;;;;;-128.00;-1.00;-1.00;100446;1283;1003962;-31
2023/12/31 04:04:15;;;;;;;24.30;11.10;;;;;;;-128.00;-1.00;-1.00;100264;1289;1039549;-32
2023/12/31 04:06:42;;;;;;;25.70;12.20;;;;;;;-128.00;-1.00;-1.00;100466;1283;1002725;-31
2023/12/31 04:09:09;;;;;;;39.60;21.00;;;;;;;-128.00;-1.00;-1.00;100524;1284;1003096;-35
2023/12/31 04:11:35;;;;;;;30.40;15.40;;;;;;;-128.00;-1.00;-1.00;100378;1283;1003303;-29
2023/12/31 04:14:00;;;;;;;35.70;18.20;;;;;;;-128.00;-1.00;-1.00;100531;1283;1003018;-31
2023/12/31 04:16:26;;;;;;;37.80;17.10;;;;;;;-128.00;-1.00;-1.00;100465;1285;1039421;-32
2023/12/31 04:18:51;;;;;;;33.90;13.60;;;;;;;-128.00;-1.00;-1.00;100555;1284;1002105;-31
2023/12/31 04:21:17;;;;;;;31.70;13.60;;;;;;;-128.00;-1.00;-1.00;100486;1283;1003295;-32
2023/12/31 04:23:42;;;;;;;37.30;15.10;;;;;;;-128.00;-1.00;-1.00;100479;1283;1003356;-33
2023/12/31 04:26:08;;;;;;;30.50;15.80;;;;;;;-128.00;-1.00;-1.00;100512;1281;1003187;-31
2023/12/31 04:28:33;;;;;;;40.30;17.30;;;;;;;-128.00;-1.00;-1.00;100211;1283;1003299;-32
2023/12/31 04:31:02;;;;;;;29.90;15.60;;;;;;;-128.00;-1.00;-1.00;100502;1283;1002843;-30
2023/12/31 04:33:28;;;;;;;39.10;15.20;;;;;;;-128.00;-1.00;-1.00;100438;1282;1058864;-32
2023/12/31 04:35:53;;;;;;;28.30;13.40;;;;;;;-128.00;-1.00;-1.00;100408;1285;1003978;-32
2023/12/31 04:38:19;;;;;;;28.00;13.10;;;;;;;-128.00;-1.00;-1.00;100623;1283;1003489;-30
2023/12/31 04:40:45;;;;;;;39.90;16.80;;;;;;;-128.00;-1.00;-1.00;100477;1283;1004362;-32
2023/12/31 04:43:10;;;;;;;34.10;14.80;;;;;;;-128.00;-1.00;-1.00;100481;1283;1004234;-30
2023/12/31 04:45:36;;;;;;;34.00;14.40;;;;;;;-128.00;-1.00;-1.00;100594;1283;1012903;-35
2023/12/31 04:48:02;;;;;;;32.20;13.90;;;;;;;-128.00;-1.00;-1.00;100364;1283;1002836;-36
2023/12/31 04:50:28;;;;;;;25.90;11.90;;;;;;;-128.00;-1.00;-1.00;100555;1283;1002669;-31
2023/12/31 04:52:53;;;;;;;19.20;9.90;;;;;;;-128.00;-1.00;-1.00;100318;1283;1003115;-32
2023/12/31 04:55:19;;;;;;;26.90;12.30;;;;;;;-128.00;-1.00;-1.00;100473;1285;1003809;-30
2023/12/31 04:57:45;;;;;;;24.20;11.00;;;;;;;-128.00;-1.00;-1.00;100611;1283;1003995;-31
2023/12/31 05:00:11;;;;;;;28.60;11.60;;;;;;;-128.00;-1.00;-1.00;100478;1283;1046649;-30
2023/12/31 05:02:37;;;;;;;38.00;12.00;;;;;;;-128.00;-1.00;-1.00;100426;1283;1002989;-32
2023/12/31 05:05:04;;;;;;;29.50;11.90;;;;;;;-128.00;-1.00;-1.00;100666;1283;1004785;-31
2023/12/31 05:07:30;;;;;;;21.50;9.80;;;;;;;-128.00;-1.00;-1.00;100440;1282;1003979;-32
2023/12/31 05:09:56;;;;;;;27.40;11.70;;;;;;;-128.00;-1.00;-1.00;100413;1286;1002888;-31
2023/12/31 05:12:21;;;;;;;27.50;11.00;;;;;;;-128.00;-1.00;-1.00;100412;1283;1046753;-32
2023/12/31 05:14:47;;;;;;;27.10;10.50;;;;;;;-128.00;-1.00;-1.00;100472;1283;1003070;-31
2023/12/31 05:17:13;;;;;;;24.80;10.70;;;;;;;-128.00;-1.00;-1.00;100267;1283;1059042;-31
2023/12/31 05:19:39;;;;;;;22.90;10.70;;;;;;;-128.00;-1.00;-1.00;100464;1283;1003072;-33
2023/12/31 05:22:05;;;;;;;32.00;11.50;;;;;;;-128.00;-1.00;-1.00;100467;1284;1003229;-33
2023/12/31 05:24:30;;;;;;;29.70;12.30;;;;;;;-128.00;-1.00;-1.00;100551;1285;1004433;-32
2023/12/31 05:26:56;;;;;;;35.80;12.20;;;;;;;-128.00;-1.00;-1.00;100569;1284;1004785;-32
2023/12/31 05:29:21;;;;;;;30.20;12.80;;;;;;;-128.00;-1.00;-1.00;100569;1283;1003585;-33
2023/12/31 05:31:47;;;;;;;30.30;12.50;;;;;;;-128.00;-1.00;-1.00;100469;1283;1003138;-31
2023/12/31 05:34:12;;;;;;;29.10;13.70;;;;;;;-128.00;-1.00;-1.00;100662;1281;1004967;-33
2023/12/31 05:36:39;;;;;;;37.20;15.60;;;;;;;-128.00;-1.00;-1.00;100542;1283;1003969;-31
2023/12/31 05:39:05;;;;;;;37.10;16.00;;;;;;;-128.00;-1.00;-1.00;100481;1283;1058303;-31
2023/12/31 05:41:31;;;;;;;35.30;15.40;;;;;;;-128.00;-1.00;-1.00;100577;1283;1003218;-32
2023/12/31 05:43:56;;;;;;;33.20;13.50;;;;;;;-128.00;-1.00;-1.00;100628;1283;1003229;-31
2023/12/31 05:46:22;;;;;;;33.00;14.60;;;;;;;-128.00;-1.00;-1.00;100492;1281;1003861;-30
2023/12/31 05:48:47;;;;;;;27.70;13.30;;;;;;;-128.00;-1.00;-1.00;100553;1285;1002988;-32
2023/12/31 05:51:13;;;;;;;;;;;;;;;-128.00;-1.00;-1.00;100615;1283;1013172;-30
2023/12/31 05:53:39;;;;;;;36.20;15.10;;;;;;;-128.00;-1.00;-1.00;100464;1285;1004062;-32
2023/12/31 05:56:05;;;;;;;34.80;16.10;;;;;;;-128.00;-1.00;-1.00;100537;1285;1002996;-33
2023/12/31 05:58:30;;;;;;;32.80;15.20;;;;;;;-128.00;-1.00;-1.00;100434;1283;1002980;-30
2023/12/31 06:00:56;;;;;;;30.60;15.50;;;;;;;-128.00;-1.00;-1.00;100244;1283;1003323;-30
2023/12/31 06:03:22;;;;;;;42.30;16.90;;;;;;;-128.00;-1.00;-1.00;100420;1283;1039062;-31
2023/12/31 06:05:47;;;;;;;38.10;16.20;;;;;;;-128.00;-1.00;-1.00;100486;1285;1003266;-31
2023/12/31 06:08:13;;;;;;;41.70;16.20;;;;;;;-128.00;-1.00;-1.00;100561;1283;1002471;-32
2023/12/31 06:10:38;;;;;;;43.30;18.20;;;;;;;-128.00;-1.00;-1.00;100553;1285;1002913;-33
2023/12/31 06:13:04;;;;;;;39.40;18.10;;;;;;;-128.00;-1.00;-1.00;100440;1283;1003465;-33
2023/12/31 06:15:30;;;;;;;44.20;19.80;;;;;;;-128.00;-1.00;-1.00;100366;1281;1046364;-32
2023/12/31 06:17:55;;;;;;;33.60;15.00;;;;;;;-128.00;-1.00;-1.00;100468;1283;1003091;-33
2023/12/31 06:20:21;;;;;;;40.40;17.90;;;;;;;-128.00;-1.00;-1.00;100429;1282;1005192;-29
2023/12/31 06:22:47;;;;;;;34.70;17.40;;;;;;;-128.00;-1.00;-1.00;100470;1283;1002669;-33
2023/12/31 06:25:12;;;;;;;37.00;17.40;;;;;;;-128.00;-1.00;-1.00;100556;1283;1003463;-33
2023/12/31 06:27:39;;;;;;;49.70;20.80;;;;;;;-128.00;-1.00;-1.00;100457;1283;1004104;-33
2023/12/31 06:30:05;;;;;;;45.00;21.00;;;;;;;-128.00;-1.00;-1.00;100419;1282;1055379;-30
2023/12/31 06:32:31;;;;;;;42.50;22.00;;;;;;;-128.00;-1.00;-1.00;100602;1283;1003228;-29
2023/12/31 06:34:57;;;;;;;48.30;20.30;;;;;;;-128.00;-1.00;-1.00;100409;1285;1003210;-32
2023/12/31 06:37:22;;;;;;;42.40;18.60;;;;;;;-128.00;-1.00;-1.00;100526;1285;1003893;-33
2023/12/31 06:39:49;;;;;;;49.50;19.10;;;;;;;-128.00;-1.00;-1.00;100521;1283;1003491;-31
2023/12/31 06:42:15;;;;;;;44.00;17.90;;;;;;;-128.00;-1.00;-1.00;100554;1283;1003210;-32
2023/12/31 06:44:41;;;;;;;45.20;18.70;;;;;;;-128.00;-1.00;-1.00;100389;1284;1002376;-31
2023/12/31 06:47:06;;;;;;;47.70;20.20;;;;;;;-128.00;-1.00;-1.00;100488;1283;1003486;-30
2023/12/31 06:49:32;;;;;;;45.20;18.90;;;;;;;-128.00;-1.00;-1.00;100418;1285;1046305;-31
2023/12/31 06:51:58;;;;;;;44.50;20.40;;;;;;;-128.00;-1.00;-1.00;100601;1283;1003734;-31
2023/12/31 06:54:23;;;;;;;40.00;18.50;;;;;;;-128.00;-1.00;-1.00;100427;1282;1004170;-31
2023/12/31 06:56:49;;;;;;;43.80;18.60;;;;;;;-128.00;-1.00;-1.00;100559;1282;1003125;-31
2023/12/31 06:59:14;;;;;;;43.70;17.90;;;;;;;-128.00;-1.00;-1.00;100498;1283;1004212;-33
2023/12/31 07:01:40;;;;;;;39.20;17.40;;;;;;;-128.00;-1.00;-1.00;100456;1283;1060157;-31
2023/12/31 07:04:06;;;;;;;46.90;18.80;;;;;;;-128.00;-1.00;-1.00;100508;1283;1003063;-32
2023/12/31 07:06:31;;;;;;;38.10;17.80;;;;;;;-128.00;-1.00;-1.00;100467;1283;1003291;-33
2023/12/31 07:08:57;;;;;;;62.70;25.50;;;;;;;-128.00;-1.00;-1.00;100544;1285;1003586;-33
2023/12/31 07:11:22;;;;;;;50.60;22.40;;;;;;;-128.00;-1.00;-1.00;100433;1282;1003071;-33
2023/12/31 07:13:48;;;;;;;59.80;29.70;;;;;;;-128.00;-1.00;-1.00;100479;1283;1002742;-33
2023/12/31 07:16:14;;;;;;;61.10;34.10;;;;;;;-128.00;-1.00;-1.00;100417;1283;1004022;-31
2023/12/31 07:18:40;;;;;;;77.70;42.20;;;;;;;-128.00;-1.00;-1.00;100215;1283;1003171;-32
2023/12/31 07:21:05;;;;;;;63.90;36.00;;;;;;;-128.00;-1.00;-1.00;100430;1282;1003629;-31
2023/12/31 07:23:32;;;;;;;45.70;22.80;;;;;;;-128.00;-1.00;-1.00;100527;1283;1003318;-31
2023/12/31 07:25:58;;;;;;;39.30;21.60;;;;;;;-128.00;-1.00;-1.00;100598;1283;1056468;-31
2023/12/31 07:28:24;;;;;;;42.20;20.30;;;;;;;-128.00;-1.00;-1.00;100374;1283;1002655;-32
2023/12/31 07:30:49;;;;;;;51.60;24.80;;;;;;;-128.00;-1.00;-1.00;100541;1283;1003322;-30
2023/12/31 07:33:15;;;;;;;49.90;23.00;;;;;;;-128.00;-1.00;-1.00;100575;1283;1003297;-32
2023/12/31 07:35:41;;;;;;;112.50;49.20;;;;;;;-128.00;-1.00;-1.00;100560;1285;1003048;-34
2023/12/31 07:38:08;;;;;;;;;;;;;;;-128.00;-1.00;-1.00;100416;1283;1059020;-32
2023/12/31 07:40:34;;;;;;;63.50;32.40;;;;;;;-128.00;-1.00;-1.00;100576;1283;1003413;-31
2023/12/31 07:43:00;;;;;;;;;;;;;;;-128.00;-1.00;-1.00;100533;1281;1004187;-32
2023/12/31 07:45:25;;;;;;;66.00;31.80;;;;;;;-128.00;-1.00;-1.00;100586;1283;1003233;-32
2023/12/31 07:47:53;;;;;;;52.50;25.50;;;;;;;-128.00;-1.00;-1.00;100498;1281;1055182;-33
2023/12/31 07:50:20;;;;;;;43.30;19.80;;;;;;;-128.00;-1.00;-1.00;100430;1284;1003444;-32
2023/12/31 07:52:46;;;;;;;38.90;17.60;;;;;;;-128.00;-1.00;-1.00;100389;1283;1003060;-33
2023/12/31 07:55:12;;;;;;;38.10;18.80;;;;;;;-128.00;-1.00;-1.00;100475;1284;1002838;-34
2023/12/31 07:57:38;;;;;;;43.00;18.60;;;;;;;-128.00;-1.00;-1.00;100429;1283;1003275;-32
2023/12/31 08:00:07;;;;;;;37.50;16.90;;;;;;;-128.00;-1.00;-1.00;100633;1283;1003671;-33
2023/12/31 08:02:32;;;;;;;45.70;20.10;;;;;;;-128.00;-1.00;-1.00;100264;1287;1058857;-35
2023/12/31 08:04:58;;;;;;;46.50;20.70;;;;;;;-128.00;-1.00;-1.00;100657;1284;1003541;-34
2023/12/31 08:07:24;;;;;;;31.60;16.20;;;;;;;-128.00;-1.00;-1.00;100642;1285;1004036;-34
2023/12/31 08:09:49;;;;;;;38.60;16.50;;;;;;;-128.00;-1.00;-1.00;100453;1283;1060167;-32
2023/12/31 08:12:15;;;;;;;40.10;18.30;;;;;;;-128.00;-1.00;-1.00;100245;1285;1003504;-32
2023/12/31 08:14:41;;;;;;;41.10;18.60;;;;;;;-128.00;-1.00;-1.00;100454;1281;1012856;-32
2023/12/31 08:17:07;;;;;;;40.00;18.50;;;;;;;-128.00;-1.00;-1.00;100333;1283;1003570;-32
2023/12/31 08:19:33;;;;;;;45.80;22.50;;;;;;;-128.00;-1.00;-1.00;100555;1283;1003822;-33
2023/12/31 08:21:58;;;;;;;39.50;19.70;;;;;;;-128.00;-1.00;-1.00;100601;1283;1003734;-32
2023/12/31 08:24:24;;;;;;;36.70;18.00;;;;;;;-128.00;-1.00;-1.00;100435;1282;1003912;-32
2023/12/31 08:26:50;;;;;;;46.70;18.60;;;;;;;-128.00;-1.00;-1.00;100300;1283;1003563;-32
2023/12/31 08:29:16;;;;;;;37.60;17.20;;;;;;;-128.00;-1.00;-1.00;100651;1283;1045990;-30
2023/12/31 08:31:41;;;;;;;35.70;16.60;;;;;;;-128.00;-1.00;-1.00;100327;1286;1003057;-33
2023/12/31 08:34:10;;;;;;;54.10;23.10;;;;;;;-128.00;-1.00;-1.00;100424;1283;1059383;-31
2023/12/31 08:36:35;;;;;;;41.50;19.90;;;;;;;-128.00;-1.00;-1.00;100229;1286;1003911;-32
2023/12/31 08:39:02;;;;;;;45.70;23.90;;;;;;;-128.00;-1.00;-1.00;100595;1285;1002565;-32
2023/12/31 08:41:27;;;;;;;46.50;23.10;;;;;;;-128.00;-1.00;-1.00;100556;1282;1060937;-33
2023/12/31 08:43:53;;;;;;;43.10;22.50;;;;;;;-128.00;-1.00;-1.00;100611;1283;1003874;-32
2023/12/31 08:46:19;;;;;;;46.70;23.60;;;;;;;-128.00;-1.00;-1.00;100454;1281;1003361;-32
2023/12/31 08:48:44;;;;;;;48.00;23.10;;;;;;;-128.00;-1.00;-1.00;100422;1282;1039278;-32
2023/12/31 08:51:09;;;;;;;43.80;22.00;;;;;;;-128.00;-1.00;-1.00;100461;1283;1002971;-32
2023/12/31 08:53:36;;;;;;;45.50;19.80;;;;;;;-128.00;-1.00;-1.00;100426;1285;1003186;-32
2023/12/31 08:56:02;;;;;;;47.30;19.00;;;;;;;-128.00;-1.00;-1.00;100540;1283;1003459;-32
2023/12/31 08:58:27;;;;;;;36.40;19.70;;;;;;;-128.00;-1.00;-1.00;100404;1283;1003469;-30
2023/12/31 09:00:53;;;;;;;36.80;18.40;;;;;;;-128.00;-1.00;-1.00;100488;1285;1003332;-32
2023/12/31 09:03:19;;;;;;;39.40;18.30;;;;;;;-128.00;-1.00;-1.00;100475;1286;1060213;-32
2023/12/31 09:05:44;;;;;;;32.50;15.70;;;;;;;-128.00;-1.00;-1.00;100516;1283;1002663;-31
2023/12/31 09:08:10;;;;;;;29.20;16.30;;;;;;;-128.00;-1.00;-1.00;100388;1285;1003701;-32
2023/12/31 09:10:35;;;;;;;28.60;15.80;;;;;;;-128.00;-1.00;-1.00;100673;1286;1002975;-32
2023/12/31 09:13:03;;;;;;;32.60;15.20;;;;;;;-128.00;-1.00;-1.00;100587;1282;1003426;-31
2023/12/31 09:15:29;;;;;;;32.00;14.80;;;;;;;-128.00;-1.00;-1.00;100439;1286;1056098;-32
2023/12/31 09:17:54;;;;;;;28.50;14.10;;;;;;;-128.00;-1.00;-1.00;100554;1285;1003899;-32
2023/12/31 09:20:21;;;;;;;32.10;14.20;;;;;;;-128.00;-1.00;-1.00;100483;1285;1003602;-31
2023/12/31 09:22:50;;;;;;;30.40;14.30;;;;;;;-128.00;-1.00;-1.00;100477;1283;1046153;-32
2023/12/31 09:25:16;;;;;;;27.00;13.60;;;;;;;-128.00;-1.00;-1.00;100496;1281;1059367;-32
2023/12/31 09:27:41;;;;;;;28.10;13.40;;;;;;;-128.00;-1.00;-1.00;100585;1286;1003557;-32
2023/12/31 09:30:07;;;;;;;21.30;12.60;;;;;;;-128.00;-1.00;-1.00;100217;1286;1003548;-32
2023/12/31 09:32:33;;;;;;;28.10;13.70;;;;;;;-128.00;-1.00;-1.00;100402;1283;1003509;-32
2023/12/31 09:34:58;;;;;;;26.80;12.80;;;;;;;-128.00;-1.00;-1.00;100654;1282;1004290;-31
2023/12/31 09:37:24;;;;;;;26.80;12.60;;;;;;;-128.00;-1.00;-1.00;100441;1283;1003421;-30
2023/12/31 09:39:49;;;;;;;25.70;12.80;;;;;;;-128.00;-1.00;-1.00;100445;1285;1004354;-31
2023/12/31 09:42:25;;;;;;;21.00;11.60;;;;;;;-128.00;-1.00;-1.00;100404;1286;1004529;-31
2023/12/31 09:44:51;;;;;;;25.00;12.40;;;;;;;-128.00;-1.00;-1.00;100492;1283;1049641;-32
2023/12/31 09:47:16;;;;;;;21.00;12.50;;;;;;;-128.00;-1.00;-1.00;100453;1285;1003100;-32
2023/12/31 09:49:42;;;;;;;26.00;13.30;;;;;;;-128.00;-1.00;-1.00;100482;1282;1003000;-32
2023/12/31 09:52:09;;;;;;;25.00;12.80;;;;;;;-128.00;-1.00;-1.00;100388;1281;1004042;-32
2023/12/31 09:54:39;;;;;;;29.80;13.10;;;;;;;-128.00;-1.00;-1.00;100559;1286;1003374;-32
2023/12/31 09:57:05;;;;;;;28.10;13.20;;;;;;;-128.00;-1.00;-1.00;100427;1283;1046577;-32
2023/12/31 09:59:30;;;;;;;22.60;11.60;;;;;;;-128.00;-1.00;-1.00;100432;1289;1002551;-32
2023/12/31 10:02:03;;;;;;;22.10;12.50;;;;;;;-128.00;-1.00;-1.00;100197;1282;1003931;-32
2023/12/31 10:04:29;;;;;;;23.00;12.90;;;;;;;-128.00;-1.00;-1.00;100414;1286;1012509;-32
2023/12/31 10:06:54;;;;;;;26.60;13.90;;;;;;;-128.00;-1.00;-1.00;100394;1286;1004210;-33
2023/12/31 10:09:21;;;;;;;24.10;13.40;;;;;;;-128.00;-1.00;-1.00;100510;1283;1003391;-31
2023/12/31 10:11:47;;;;;;;23.60;11.70;;;;;;;-128.00;-1.00;-1.00;100281;1282;1056359;-32
2023/12/31 10:14:13;;;;;;;27.60;12.00;;;;;;;-128.00;-1.00;-1.00;100427;1283;1004385;-32
2023/12/31 10:16:43;;;;;;;23.10;12.00;;;;;;;-128.00;-1.00;-1.00;100267;1286;1038078;-34
2023/12/31 10:19:15;;;;;;;22.00;11.70;;;;;;;-128.00;-1.00;-1.00;100445;1286;1046416;-31
2023/12/31 10:21:41;;;;;;;22.10;11.60;;;;;;;-128.00;-1.00;-1.00;100466;1283;1059250;-31
2023/12/31 10:24:07;;;;;;;21.10;10.00;;;;;;;-128.00;-1.00;-1.00;100355;1286;1003178;-31
2023/12/31 10:26:33;;;;;;;20.70;10.20;;;;;;;-128.00;-1.00;-1.00;100470;1283;1003352;-32
2023/12/31 10:28:59;;;;;;;18.90;10.10;;;;;;;-128.00;-1.00;-1.00;100449;1282;1002900;-32
2023/12/31 10:31:25;;;;;;;19.60;10.90;;;;;;;-128.00;-1.00;-1.00;100463;1284;1003580;-33
2023/12/31 10:33:51;;;;;;;22.70;10.70;;;;;;;-128.00;-1.00;-1.00;100461;1283;1003230;-32
2023/12/31 10:36:23;;;;;;;19.10;10.40;;;;;;;-128.00;-1.00;-1.00;100467;1285;1002973;-30
2023/12/31 10:38:50;;;;;;;19.70;10.90;;;;;;;-128.00;-1.00;-1.00;100459;1286;1058121;-33
2023/12/31 10:41:20;;;;;;;21.10;11.30;;;;;;;-128.00;-1.00;-1.00;100563;1283;1003406;-33
2023/12/31 10:43:49;;;;;;;23.80;13.40;;;;;;;-128.00;-1.00;-1.00;100429;1284;1038939;-33
2023/12/31 10:46:16;;;;;;;26.40;13.20;;;;;;;-128.00;-1.00;-1.00;100418;1283;1049611;-33
2023/12/31 10:48:58;;;;;;;24.80;12.10;;;;;;;-128.00;-1.00;-1.00;100559;1283;1002772;-33
2023/12/31 10:51:23;;;;;;;20.90;10.60;;;;;;;-128.00;-1.00;-1.00;100430;1282;1055606;-32
2023/12/31 10:53:52;;;;;;;22.60;10.80;;;;;;;-128.00;-1.00;-1.00;100421;1282;1003378;-36
2023/12/31 10:56:18;;;;;;;22.20;11.80;;;;;;;-128.00;-1.00;-1.00;100713;1282;1003478;-31
2023/12/31 10:58:44;;;;;;;34.80;17.40;;;;;;;-128.00;-1.00;-1.00;100515;1281;1004692;-34
2023/12/31 11:01:10;;;;;;;26.40;13.50;;;;;;;-128.00;-1.00;-1.00;100532;1285;1002605;-33
2023/12/31 11:03:39;;;;;;;18.40;10.10;;;;;;;-128.00;-1.00;-1.00;100483;1284;1060474;-34
2023/12/31 11:06:06;;;;;;;16.40;10.10;;;;;;;-128.00;-1.00;-1.00;100324;1286;1002882;-32
2023/12/31 11:08:32;;;;;;;19.70;8.40;;;;;;;-128.00;-1.00;-1.00;100299;1282;1004003;-31
2023/12/31 11:10:58;;;;;;;13.80;7.70;;;;;;;-128.00;-1.00;-1.00;100529;1284;1038696;-32
2023/12/31 11:13:24;;;;;;;16.90;9.10;;;;;;;-128.00;-1.00;-1.00;100473;1283;1003238;-33
2023/12/31 11:15:50;;;;;;;;;;;;;;;-128.00;-1.00;-1.00;100603;1283;1002652;-32
2023/12/31 11:18:32;;;;;;;43.70;22.30;;;;;;;-128.00;-1.00;-1.00;100451;1283;1059557;-33
2023/12/31 11:21:01;;;;;;;27.50;14.10;;;;;;;-128.00;-1.00;-1.00;100484;1283;1012111;-33
2023/12/31 11:23:42;;;;;;;52.40;25.00;;;;;;;-128.00;-1.00;-1.00;100551;1285;1038652;-33
2023/12/31 11:26:07;;;;;;;33.70;17.50;;;;;;;-128.00;-1.00;-1.00;100500;1283;1046519;-32
2023/12/31 11:28:35;;;;;;;21.50;12.30;;;;;;;-128.00;-1.00;-1.00;100468;1283;1003184;-33
2023/12/31 11:31:02;;;;;;;15.30;8.70;;;;;;;-128.00;-1.00;-1.00;100456;1283;1003246;-33
2023/12/31 11:33:32;;;;;;;16.70;9.50;;;;;;;-128.00;-1.00;-1.00;100541;1283;1004954;-33
2023/12/31 11:36:07;;;;;;;14.30;8.40;;;;;;;-128.00;-1.00;-1.00;100457;1283;1012622;-30
2023/12/31 11:38:57;;;;;;;17.10;7.90;;;;;;;-128.00;-1.00;-1.00;100436;1283;1038798;-31
2023/12/31 11:41:32;;;;;;;14.90;7.60;;;;;;;-128.00;-1.00;-1.00;100438;1283;1046325;-31